Time;durP1;ratioP1;P1;durP2;ratioP2;P2;SDS_P1;SDS_P2;PMS_P1;PMS_P2;Temp;Humidity;BMP_temperature;BMP_pressure;BME280_temperature;BME280_humidity;BME280_pressure;Samples;Min_cycle;Max_cycle;Signal;HPM_P1;HPM_P2
2022/06/29 00:00:06;;;;;;;2.35;1.80;;;24.40;55.20;;;;;;5064428;28;45605;-87
2022/06/29 00:02:33;;;;;;;2.30;2.00;;;24.40;54.90;;;;;;5066210;28;45246;-87
2022/06/29 00:05:00;;;;;;;3.42;2.10;;;24.40;55.00;;;;;;5068039;28;44657;-88
2022/06/29 00:07:27;;;;;;;3.40;1.85;;;24.40;54.90;;;;;;5068311;28;45262;-88
2022/06/29 00:09:54;;;;;;;1.80;1.70;;;24.40;54.80;;;;;;5060083;28;45369;-88
2022/06/29 00:12:21;;;;;;;1.70;1.60;;;24.40;55.00;;;;;;5084977;28;45319;-84
2022/06/29 00:14:49;;;;;;;2.03;1.67;;;24.40;54.70;;;;;;5084693;28;45193;-89
2022/06/29 00:17:16;;;;;;;2.10;2.00;;;24.40;55.10;;;;;;5088469;28;45285;-88
2022/06/29 00:19:43;;;;;;;1.70;1.60;;;24.40;54.70;;;;;;5088248;28;45348;-88
2022/06/29 00:22:10;;;;;;;1.98;1.48;;;24.40;54.80;;;;;;5088006;28;45308;-88
2022/06/29 00:24:36;;;;;;;1.58;1.48;;;24.40;54.80;;;;;;5087965;28;45272;-89
2022/06/29 00:27:04;;;;;;;2.13;2.03;;;24.40;54.80;;;;;;5089141;28;45198;-89
2022/06/29 00:29:31;;;;;;;1.70;1.60;;;24.30;54.60;;;;;;5087347;28;47952;-87
2022/06/29 00:31:59;;;;;;;2.03;1.83;;;24.40;54.80;;;;;;5087559;28;45396;-89
2022/06/29 00:34:26;;;;;;;1.77;1.67;;;24.30;54.60;;;;;;5084966;28;45324;-89
2022/06/29 00:36:53;;;;;;;3.25;1.80;;;24.30;55.00;;;;;;5087905;28;45180;-88
2022/06/29 00:39:20;;;;;;;2.22;2.08;;;24.30;54.60;;;;;;5084829;28;45445;-88
2022/06/29 00:41:46;;;;;;;5.13;2.00;;;24.30;54.60;;;;;;5088009;28;45201;-89
2022/06/29 00:44:14;;;;;;;1.77;1.60;;;24.30;54.50;;;;;;5087574;28;45186;-88
2022/06/29 00:46:41;;;;;;;1.73;1.63;;;24.30;54.60;;;;;;5088223;28;45338;-90
2022/06/29 00:49:10;;;;;;;1.50;1.40;;;24.30;54.50;;;;;;5087740;28;45280;-90
2022/06/29 00:51:37;;;;;;;1.67;1.58;;;24.30;54.50;;;;;;5085301;28;45185;-89
2022/06/29 00:54:04;;;;;;;1.80;1.60;;;24.30;54.50;;;;;;5087838;28;45415;-88
2022/06/29 00:56:31;;;;;;;1.70;1.60;;;24.30;54.40;;;;;;5085373;28;45301;-88
2022/06/29 00:58:58;;;;;;;2.42;1.45;;;24.30;54.40;;;;;;5088094;28;45402;-89
2022/06/29 01:01:25;;;;;;;1.50;1.40;;;24.20;54.30;;;;;;5088190;28;45253;-87
2022/06/29 01:03:52;;;;;;;1.63;1.55;;;24.30;54.40;;;;;;5087074;28;45299;-87
2022/06/29 01:06:20;;;;;;;1.60;1.50;;;24.30;54.50;;;;;;5085930;28;44741;-87
2022/06/29 01:08:47;;;;;;;1.70;1.60;;;24.30;54.50;;;;;;5085332;28;45712;-87
2022/06/29 01:11:14;;;;;;;1.70;1.60;;;24.30;54.40;;;;;;5063266;28;45195;-88
2022/06/29 01:13:43;;;;;;;1.50;1.40;;;24.30;54.30;;;;;;5069691;28;45178;-86
2022/06/29 01:16:10;;;;;;;1.52;1.42;;;24.30;54.30;;;;;;5070675;28;45369;-88
2022/06/29 01:18:37;;;;;;;1.80;1.70;;;24.30;54.40;;;;;;5073046;28;45373;-88
2022/06/29 01:21:05;;;;;;;3.45;1.50;;;24.30;54.50;;;;;;5092685;27;44717;-87
2022/06/29 01:23:33;;;;;;;1.50;1.40;;;24.30;54.40;;;;;;5094143;27;44691;-87
2022/06/29 01:26:04;;;;;;;1.88;1.70;;;24.30;54.30;;;;;;5093852;27;44849;-87
2022/06/29 01:28:31;;;;;;;1.60;1.50;;;24.30;54.40;;;;;;5093683;27;47611;-88
2022/06/29 01:30:58;;;;;;;1.40;1.30;;;24.20;54.30;;;;;;5094123;27;44724;-87
2022/06/29 01:33:24;;;;;;;2.35;1.40;;;24.30;54.30;;;;;;5094220;27;44779;-87
2022/06/29 01:35:52;;;;;;;1.92;1.60;;;24.30;54.50;;;;;;5094060;27;44836;-88
2022/06/29 01:38:19;;;;;;;1.67;1.58;;;24.30;54.40;;;;;;5091041;27;45529;-87
2022/06/29 01:40:47;;;;;;;1.65;1.52;;;24.30;54.30;;;;;;5094028;27;44684;-85
2022/06/29 01:43:14;;;;;;;1.60;1.50;;;24.20;54.40;;;;;;5094010;27;44692;-87
2022/06/29 01:45:41;;;;;;;1.75;1.65;;;24.20;54.30;;;;;;5094015;27;44824;-87
2022/06/29 01:48:08;;;;;;;1.60;1.50;;;24.20;54.30;;;;;;5091085;27;45399;-88
2022/06/29 01:50:34;;;;;;;1.77;1.67;;;24.30;54.20;;;;;;5093608;27;44621;-88
2022/06/29 01:53:01;;;;;;;1.60;1.50;;;24.20;54.20;;;;;;5093853;27;44842;-87
2022/06/29 01:55:28;;;;;;;1.48;1.38;;;24.20;54.20;;;;;;5091373;27;44632;-88
2022/06/29 01:57:56;;;;;;;1.70;1.60;;;24.20;54.40;;;;;;5093765;27;45205;-88
2022/06/29 02:00:23;;;;;;;1.60;1.50;;;24.20;54.40;;;;;;5093886;27;45352;-88
2022/06/29 02:02:50;;;;;;;1.75;1.65;;;24.20;54.40;;;;;;5093786;27;44688;-88
2022/06/29 02:05:17;;;;;;;1.80;1.60;;;24.20;54.40;;;;;;5080919;27;45124;-88
2022/06/29 02:07:44;;;;;;;1.92;1.60;;;24.20;54.40;;;;;;5070304;28;45639;-88
2022/06/29 02:10:11;;;;;;;1.50;1.40;;;24.10;54.40;;;;;;5054256;28;45285;-87
2022/06/29 02:12:37;;;;;;;1.48;1.40;;;24.20;54.40;;;;;;5049399;28;45314;-86
2022/06/29 02:15:08;;;;;;;1.70;1.60;;;24.10;54.50;;;;;;5050464;28;45238;-87
2022/06/29 02:17:35;;;;;;;1.75;1.42;;;24.10;54.40;;;;;;5049520;28;45462;-87
2022/06/29 02:20:02;;;;;;;1.45;1.35;;;24.10;54.40;;;;;;5046889;28;45340;-87
2022/06/29 02:22:29;;;;;;;1.98;1.67;;;24.10;54.40;;;;;;5049695;28;45228;-88
2022/06/29 02:24:56;;;;;;;1.77;1.50;;;24.10;54.50;;;;;;5049296;28;45189;-88
2022/06/29 02:27:23;;;;;;;1.80;1.70;;;24.10;54.40;;;;;;5048313;28;46932;-88
2022/06/29 02:29:50;;;;;;;2.22;1.60;;;24.10;54.50;;;;;;5049508;28;45384;-87
2022/06/29 02:35:02;;;;;;;1.67;1.58;;;24.00;54.40;;;;;;5049744;28;45323;-88
2022/06/29 02:37:29;;;;;;;1.60;1.50;;;24.00;54.40;;;;;;5048914;28;45394;-89
2022/06/29 02:39:56;;;;;;;1.77;1.67;;;24.00;54.60;;;;;;5049357;28;45178;-88
2022/06/29 02:42:23;;;;;;;1.67;1.58;;;24.00;54.40;;;;;;5046800;28;45410;-88
2022/06/29 02:44:50;;;;;;;1.65;1.55;;;24.00;54.50;;;;;;5049415;28;45487;-87
2022/06/29 02:47:18;;;;;;;1.60;1.50;;;24.00;54.40;;;;;;5048846;28;45297;-87
2022/06/29 02:49:45;;;;;;;1.70;1.60;;;24.00;54.50;;;;;;5068107;28;45479;-86
2022/06/29 02:52:12;;;;;;;1.85;1.70;;;24.00;54.40;;;;;;5087028;28;45196;-86
2022/06/29 02:54:39;;;;;;;2.38;1.63;;;24.00;55.10;;;;;;5089782;28;45292;-87
2022/06/29 02:57:06;;;;;;;1.63;1.52;;;23.90;54.50;;;;;;5086592;28;47178;-88
2022/06/29 02:59:33;;;;;;;1.65;1.55;;;23.90;54.60;;;;;;5088891;28;45288;-87
2022/06/29 03:02:00;;;;;;;1.73;1.63;;;23.90;54.50;;;;;;5088843;28;45270;-86
2022/06/29 03:04:28;;;;;;;1.90;1.80;;;23.90;54.50;;;;;;5089133;28;45185;-87
2022/06/29 03:06:55;;;;;;;1.95;1.85;;;23.90;54.60;;;;;;5088505;28;46401;-88
2022/06/29 03:09:21;;;;;;;1.50;1.48;;;23.90;54.40;;;;;;5081795;28;45300;-88
2022/06/29 03:11:48;;;;;;;1.55;1.45;;;23.90;54.60;;;;;;5065988;28;45254;-88
2022/06/29 03:14:15;;;;;;;1.88;1.77;;;23.90;54.40;;;;;;5068850;28;45464;-89
2022/06/29 03:16:42;;;;;;;1.70;1.60;;;23.90;54.50;;;;;;5065775;28;45167;-87
2022/06/29 03:19:09;;;;;;;1.88;1.50;;;23.90;55.10;;;;;;5065789;28;45326;-88
2022/06/29 03:21:37;;;;;;;1.65;1.55;;;23.80;54.60;;;;;;5065862;28;45219;-89
2022/06/29 03:24:05;;;;;;;2.08;1.80;;;23.80;54.50;;;;;;5069418;28;45208;-89
2022/06/29 03:26:32;;;;;;;1.70;1.60;;;23.80;54.40;;;;;;5068437;28;45476;-88
2022/06/29 03:28:58;;;;;;;1.77;1.67;;;23.80;54.40;;;;;;5068077;28;45644;-88
2022/06/29 03:31:25;;;;;;;2.00;1.90;;;23.80;54.40;;;;;;5068310;28;45403;-88
2022/06/29 03:33:52;;;;;;;2.47;1.98;;;23.80;54.50;;;;;;5068821;28;45323;-87
2022/06/29 03:36:19;;;;;;;1.67;1.60;;;23.80;54.60;;;;;;5068213;28;45686;-88
2022/06/29 03:38:47;;;;;;;1.90;1.80;;;23.80;54.40;;;;;;5067865;28;45251;-87
2022/06/29 03:41:14;;;;;;;1.77;1.67;;;23.80;54.50;;;;;;5065730;28;45475;-89
2022/06/29 03:43:41;;;;;;;1.55;1.52;;;23.80;54.50;;;;;;5065829;28;45355;-88
2022/06/29 03:46:08;;;;;;;1.90;1.80;;;23.70;54.60;;;;;;5068162;28;45714;-88
2022/06/29 03:48:35;;;;;;;1.80;1.70;;;23.70;54.50;;;;;;5068580;28;45307;-89
2022/06/29 03:51:02;;;;;;;1.70;1.60;;;23.70;54.50;;;;;;5065490;28;45285;-88
2022/06/29 03:53:28;;;;;;;1.70;1.60;;;23.70;54.50;;;;;;5068354;28;45544;-89
2022/06/29 03:55:57;;;;;;;1.73;1.63;;;23.70;54.50;;;;;;5065395;28;46576;-87
2022/06/29 03:58:24;;;;;;;2.22;1.70;;;23.70;54.50;;;;;;5069057;28;45307;-88
2022/06/29 04:00:51;;;;;;;1.60;1.50;;;23.70;54.40;;;;;;5068481;28;45279;-89
2022/06/29 04:03:18;;;;;;;1.70;1.60;;;23.70;54.50;;;;;;5068972;28;45200;-88
2022/06/29 04:05:45;;;;;;;2.03;1.73;;;23.70;54.40;;;;;;5071028;28;47961;-88
2022/06/29 04:08:11;;;;;;;1.60;1.50;;;23.70;54.50;;;;;;5065722;28;45294;-88
2022/06/29 04:10:38;;;;;;;2.10;1.90;;;23.70;54.50;;;;;;5051321;28;44760;-88
2022/06/29 04:13:07;;;;;;;1.67;1.58;;;23.70;54.50;;;;;;5048743;28;45262;-89
2022/06/29 04:15:34;;;;;;;1.30;1.30;;;23.70;54.40;;;;;;5047734;28;45200;-88
2022/06/29 04:18:01;;;;;;;1.77;1.58;;;23.70;54.40;;;;;;5047856;28;44858;-89
2022/06/29 04:23:13;;;;;;;1.80;1.70;;;23.60;54.50;;;;;;5045723;28;45446;-87
2022/06/29 04:25:40;;;;;;;1.60;1.50;;;23.60;54.40;;;;;;5055708;28;46552;-87
2022/06/29 04:28:08;;;;;;;4.70;1.85;;;23.60;54.30;;;;;;5048505;28;45120;-87
2022/06/29 04:30:35;;;;;;;1.42;1.40;;;23.60;54.40;;;;;;5048508;28;45418;-86
2022/06/29 04:33:02;;;;;;;1.90;1.80;;;23.60;54.40;;;;;;5044561;28;45296;-88
2022/06/29 04:35:29;;;;;;;1.88;1.60;;;23.60;54.30;;;;;;5047732;28;45318;-88
2022/06/29 04:37:56;;;;;;;2.25;1.70;;;23.60;54.40;;;;;;5049394;28;45237;-89
2022/06/29 04:40:23;;;;;;;1.58;1.50;;;23.60;54.30;;;;;;5047582;28;45194;-88
2022/06/29 04:42:50;;;;;;;1.65;1.55;;;23.50;54.40;;;;;;5047789;28;45174;-88
2022/06/29 04:48:00;;;;;;;1.50;1.40;;;23.50;54.40;;;;;;5046917;28;45185;-86
2022/06/29 04:50:27;;;;;;;1.80;1.70;;;23.50;54.40;;;;;;5082902;28;45402;-88
2022/06/29 04:52:54;;;;;;;1.70;1.60;;;23.50;54.30;;;;;;5089274;28;45350;-88
2022/06/29 04:55:23;;;;;;;1.80;1.70;;;23.50;54.40;;;;;;5092317;28;45533;-87
2022/06/29 04:57:50;;;;;;;1.75;1.65;;;23.50;54.40;;;;;;5092095;28;45171;-89
2022/06/29 05:00:19;;;;;;;2.45;1.80;;;23.50;54.50;;;;;;5089336;28;44722;-88
2022/06/29 05:02:46;;;;;;;1.92;1.83;;;23.50;54.50;;;;;;5095707;28;45266;-89
2022/06/29 05:05:13;;;;;;;1.60;1.50;;;23.50;54.40;;;;;;5092703;28;45695;-88
2022/06/29 05:07:40;;;;;;;1.75;1.65;;;23.50;54.40;;;;;;5089588;28;45208;-89
2022/06/29 05:10:08;;;;;;;1.95;1.85;;;23.50;54.50;;;;;;5078690;28;45306;-87
2022/06/29 05:12:38;;;;;;;1.55;1.45;;;23.50;54.50;;;;;;5072264;28;45403;-87
2022/06/29 05:15:05;;;;;;;2.45;1.80;;;23.50;54.40;;;;;;5070759;28;45727;-88
2022/06/29 05:17:36;;;;;;;1.90;1.70;;;23.50;55.00;;;;;;5069982;28;45341;-88
2022/06/29 05:20:04;;;;;;;1.65;1.55;;;23.50;54.50;;;;;;5073033;28;45119;-88
2022/06/29 05:22:31;;;;;;;1.70;1.60;;;23.50;54.60;;;;;;5072744;28;45455;-87
2022/06/29 05:24:58;;;;;;;1.90;1.80;;;23.50;54.50;;;;;;5073539;28;45314;-88
2022/06/29 05:27:25;;;;;;;1.40;1.40;;;23.50;54.60;;;;;;5070576;28;45297;-88
2022/06/29 05:29:52;;;;;;;3.20;2.00;;;23.50;54.50;;;;;;5073744;28;45163;-86
2022/06/29 05:32:19;;;;;;;1.77;1.55;;;23.50;54.60;;;;;;5072537;28;45277;-88
2022/06/29 05:34:47;;;;;;;2.03;1.85;;;23.50;54.60;;;;;;5070679;28;45761;-88
2022/06/29 05:37:14;;;;;;;1.92;1.73;;;23.50;54.70;;;;;;5073273;28;45283;-89
2022/06/29 05:39:42;;;;;;;2.45;1.63;;;23.50;54.60;;;;;;5073890;28;45184;-88
2022/06/29 05:42:09;;;;;;;1.80;1.70;;;23.50;54.60;;;;;;5074560;28;45211;-90
2022/06/29 05:44:36;;;;;;;1.85;1.75;;;23.50;54.60;;;;;;5074806;28;47259;-88
2022/06/29 05:47:03;;;;;;;1.70;1.60;;;23.50;55.10;;;;;;5071559;28;44762;-89
2022/06/29 05:49:30;;;;;;;1.98;1.58;;;23.50;54.50;;;;;;5072952;28;45315;-88
2022/06/29 05:51:59;;;;;;;6.80;2.13;;;23.50;54.70;;;;;;5074287;28;45590;-88
2022/06/29 05:54:25;;;;;;;2.10;2.00;;;23.50;55.40;;;;;;5073344;28;45664;-89
2022/06/29 05:56:52;;;;;;;3.00;2.60;;;23.50;55.50;;;;;;5073440;28;45242;-89
2022/06/29 05:59:19;;;;;;;6.55;2.30;;;23.50;55.90;;;;;;5079579;28;44846;-88
2022/06/29 06:01:46;;;;;;;3.60;2.35;;;23.50;56.00;;;;;;5080470;28;45177;-90
2022/06/29 06:04:13;;;;;;;3.85;2.08;;;23.50;56.50;;;;;;5069661;28;45389;-86
2022/06/29 06:06:40;;;;;;;5.25;2.20;;;23.60;56.50;;;;;;5073425;28;45197;-89
2022/06/29 06:09:08;;;;;;;2.83;2.50;;;23.60;56.50;;;;;;5069257;28;45221;-91
2022/06/29 06:11:35;;;;;;;3.22;2.35;;;23.60;56.50;;;;;;5048113;28;45363;-89
2022/06/29 06:14:02;;;;;;;3.00;2.35;;;23.60;56.80;;;;;;5049803;28;46702;-89
2022/06/29 06:16:29;;;;;;;4.38;2.25;;;23.60;56.00;;;;;;5050173;28;45174;-88
2022/06/29 06:18:56;;;;;;;2.47;2.05;;;23.60;55.90;;;;;;5047237;28;45481;-89
2022/06/29 06:21:23;;;;;;;2.40;2.20;;;23.60;55.50;;;;;;5052408;28;45337;-88
2022/06/29 06:23:50;;;;;;;4.60;2.35;;;23.70;55.60;;;;;;5047042;28;45657;-89
2022/06/29 06:26:18;;;;;;;2.47;2.05;;;23.70;55.50;;;;;;5049815;28;45213;-89
2022/06/29 06:28:46;;;;;;;2.35;2.15;;;23.70;55.50;;;;;;5047974;28;45174;-89
2022/06/29 06:31:13;;;;;;;4.18;2.08;;;23.70;55.40;;;;;;5052420;28;45288;-89
2022/06/29 06:33:41;;;;;;;2.33;2.13;;;23.70;55.40;;;;;;5052511;28;48564;-88
2022/06/29 06:36:08;;;;;;;2.40;2.00;;;23.70;55.20;;;;;;5050104;28;45189;-89
2022/06/29 06:38:35;;;;;;;2.05;1.92;;;23.70;55.10;;;;;;5050961;28;44660;-89
2022/06/29 06:43:47;;;;;;;2.40;2.20;;;23.80;55.00;;;;;;5050515;28;45193;-89
2022/06/29 06:46:14;;;;;;;2.45;2.00;;;23.80;54.90;;;;;;5046847;28;44731;-89
2022/06/29 06:48:42;;;;;;;2.25;2.05;;;23.80;54.90;;;;;;5055563;28;45427;-89
2022/06/29 06:51:10;;;;;;;1.83;1.73;;;23.80;54.80;;;;;;5100568;28;45444;-87
2022/06/29 06:53:37;;;;;;;2.10;2.00;;;23.90;54.80;;;;;;5089911;28;47332;-89
2022/06/29 06:56:04;;;;;;;2.47;2.28;;;23.90;54.80;;;;;;5077704;28;45366;-88
2022/06/29 06:58:31;;;;;;;1.98;1.88;;;23.90;54.70;;;;;;5074741;28;45277;-90
2022/06/29 07:00:59;;;;;;;2.03;1.83;;;23.90;54.70;;;;;;5070990;28;45265;-88
2022/06/29 07:03:27;;;;;;;4.03;1.92;;;23.90;54.60;;;;;;5068042;28;45353;-88
2022/06/29 07:05:54;;;;;;;2.17;1.73;;;24.00;54.60;;;;;;5072080;28;45289;-88
2022/06/29 07:08:21;;;;;;;2.10;2.00;;;24.00;54.50;;;;;;5070461;28;45329;-88
2022/06/29 07:10:48;;;;;;;2.53;1.90;;;24.00;54.40;;;;;;5072159;28;45658;-88
2022/06/29 07:13:15;;;;;;;2.10;2.00;;;24.00;54.30;;;;;;5089036;28;45213;-88
2022/06/29 07:15:42;;;;;;;1.70;1.60;;;24.00;54.20;;;;;;5088427;28;45299;-87
2022/06/29 07:18:10;;;;;;;2.00;1.90;;;24.10;54.40;;;;;;5087536;28;45322;-89
2022/06/29 07:20:37;;;;;;;2.00;1.80;;;24.10;54.10;;;;;;5091330;28;45428;-87
2022/06/29 07:23:04;;;;;;;2.20;2.00;;;24.10;54.10;;;;;;5089522;28;46587;-89
2022/06/29 07:25:31;;;;;;;2.00;1.90;;;24.10;54.10;;;;;;5089086;28;45165;-88
2022/06/29 07:27:58;;;;;;;3.95;1.90;;;24.10;54.10;;;;;;5087072;28;44666;-88
2022/06/29 07:30:25;;;;;;;2.45;1.95;;;24.10;54.10;;;;;;5090105;28;44766;-88
2022/06/29 07:32:52;;;;;;;1.88;1.65;;;24.20;54.10;;;;;;5087649;28;46693;-87
2022/06/29 07:35:20;;;;;;;2.22;2.00;;;24.20;54.20;;;;;;5089110;28;45190;-88
2022/06/29 07:37:47;;;;;;;1.80;1.70;;;24.20;54.10;;;;;;5089099;28;45292;-87
2022/06/29 07:40:14;;;;;;;2.28;2.08;;;24.20;54.20;;;;;;5086907;28;45310;-88
2022/06/29 07:42:41;;;;;;;2.08;1.90;;;24.20;54.10;;;;;;5089314;28;45348;-88
2022/06/29 07:45:09;;;;;;;1.92;1.80;;;24.20;54.10;;;;;;5085527;28;45190;-88
2022/06/29 07:47:36;;;;;;;2.00;1.80;;;24.30;54.20;;;;;;5087255;28;45169;-88
2022/06/29 07:50:03;;;;;;;2.10;1.90;;;24.30;54.10;;;;;;5092042;28;45297;-88
2022/06/29 07:52:33;;;;;;;1.98;1.80;;;24.30;54.10;;;;;;5090163;28;45706;-89
2022/06/29 07:55:00;;;;;;;2.00;1.90;;;24.30;54.10;;;;;;5089749;28;45184;-89
2022/06/29 07:57:26;;;;;;;2.08;1.98;;;24.30;54.10;;;;;;5086779;28;45253;-89
2022/06/29 07:59:53;;;;;;;2.00;1.90;;;24.40;54.10;;;;;;5090562;28;45494;-89
2022/06/29 08:02:20;;;;;;;2.00;1.90;;;24.40;54.10;;;;;;5086049;28;45405;-88
2022/06/29 08:04:47;;;;;;;2.35;1.98;;;24.40;54.10;;;;;;5088541;28;45287;-88
2022/06/29 08:07:14;;;;;;;2.65;2.13;;;24.40;54.10;;;;;;5087978;28;45190;-87
2022/06/29 08:09:42;;;;;;;2.08;1.98;;;24.40;54.10;;;;;;5068277;28;45189;-87
2022/06/29 08:12:10;;;;;;;1.95;1.85;;;24.50;54.10;;;;;;5067082;28;46696;-87
2022/06/29 08:14:37;;;;;;;2.10;1.90;;;24.50;54.10;;;;;;5067286;28;44714;-88
2022/06/29 08:17:04;;;;;;;2.75;2.03;;;24.50;54.00;;;;;;5067936;28;45194;-87
2022/06/29 08:19:31;;;;;;;4.63;2.30;;;24.50;54.00;;;;;;5067445;28;45240;-89
2022/06/29 08:21:58;;;;;;;2.50;2.10;;;24.60;54.60;;;;;;5065966;28;45522;-90
2022/06/29 08:24:27;;;;;;;2.13;2.03;;;24.60;53.90;;;;;;5070503;28;45968;-89
2022/06/29 08:26:55;;;;;;;1.92;1.83;;;24.60;53.90;;;;;;5071067;28;45181;-89
2022/06/29 08:29:22;;;;;;;3.08;1.85;;;24.60;53.80;;;;;;5072851;28;44691;-89
2022/06/29 08:31:49;;;;;;;2.03;1.92;;;24.70;53.80;;;;;;5074923;28;45620;-89
2022/06/29 08:34:16;;;;;;;2.20;2.00;;;24.70;53.90;;;;;;5072578;28;45347;-89
2022/06/29 08:36:43;;;;;;;2.00;1.90;;;24.70;53.80;;;;;;5074061;28;45151;-90
2022/06/29 08:39:10;;;;;;;1.85;1.75;;;24.70;53.70;;;;;;5074086;28;45660;-88
2022/06/29 08:41:37;;;;;;;2.53;2.00;;;24.80;53.70;;;;;;5073039;28;45687;-89
2022/06/29 08:44:06;;;;;;;2.15;1.90;;;24.80;53.70;;;;;;5073095;28;45300;-90
2022/06/29 08:46:32;;;;;;;1.98;1.80;;;24.80;53.60;;;;;;5074199;28;45214;-89
2022/06/29 08:49:01;;;;;;;2.00;1.90;;;24.90;53.70;;;;;;5073708;28;45194;-88
2022/06/29 08:51:29;;;;;;;2.78;2.20;;;24.90;53.80;;;;;;5072891;28;45298;-88
2022/06/29 08:53:56;;;;;;;2.45;1.77;;;24.90;53.70;;;;;;5058132;28;45455;-89
2022/06/29 08:56:23;;;;;;;2.10;1.95;;;25.00;53.60;;;;;;5047804;28;45217;-89
2022/06/29 08:58:51;;;;;;;2.42;2.20;;;25.00;53.50;;;;;;5049951;28;45314;-87
2022/06/29 09:01:20;;;;;;;2.35;2.10;;;25.00;53.40;;;;;;5049093;28;45731;-88
2022/06/29 09:03:46;;;;;;;2.00;1.90;;;25.00;53.40;;;;;;5049032;28;45426;-89
2022/06/29 09:06:13;;;;;;;2.20;1.95;;;25.00;53.40;;;;;;5049238;28;44750;-88
2022/06/29 09:08:40;;;;;;;2.10;1.92;;;25.10;53.40;;;;;;5049339;28;45474;-88
2022/06/29 09:11:24;;;;;;;2.38;2.17;;;25.10;53.30;;;;;;5060704;28;45741;-86
2022/06/29 09:14:09;;;;;;;1.90;1.80;;;25.10;53.20;;;;;;5070514;28;45712;-88
2022/06/29 09:16:54;;;;;;;2.28;2.00;;;25.20;53.30;;;;;;5067138;28;45162;-88
2022/06/29 09:19:21;;;;;;;5.15;2.42;;;25.20;53.30;;;;;;5069254;28;45282;-88
2022/06/29 09:21:48;;;;;;;2.38;2.20;;;25.30;53.40;;;;;;5066322;28;46812;-89
2022/06/29 09:24:15;;;;;;;4.63;2.50;;;25.30;53.40;;;;;;5069604;28;45218;-88
2022/06/29 09:26:42;;;;;;;4.90;2.70;;;25.40;53.60;;;;;;5069681;28;45289;-88
2022/06/29 09:29:13;;;;;;;5.00;2.80;;;25.40;53.70;;;;;;5069530;28;45400;-88
2022/06/29 09:31:40;;;;;;;7.60;3.17;;;25.50;53.70;;;;;;5068803;28;47309;-88
2022/06/29 09:34:19;;;;;;;5.22;2.83;;;25.50;53.70;;;;;;5066878;28;45345;-88
2022/06/29 09:36:55;;;;;;;4.82;2.78;;;25.60;53.30;;;;;;5069601;28;45361;-87
2022/06/29 09:39:32;;;;;;;3.58;2.67;;;25.60;53.00;;;;;;5069437;28;45579;-88
2022/06/29 09:41:59;;;;;;;3.65;2.50;;;25.70;52.80;;;;;;5069551;28;47334;-88
2022/06/29 09:44:26;;;;;;;2.67;2.40;;;25.70;52.70;;;;;;5066489;28;45356;-88
2022/06/29 09:46:54;;;;;;;4.78;2.58;;;25.70;53.10;;;;;;5068842;28;45305;-87
2022/06/29 09:49:24;;;;;;;2.95;2.75;;;25.80;52.70;;;;;;5028114;28;1192473;-88
2022/06/29 09:51:52;;;;;;;4.22;3.53;;;25.80;52.80;;;;;;5070233;28;45563;-88
2022/06/29 09:54:19;;;;;;;4.13;3.30;;;25.90;53.30;;;;;;5069737;28;44629;-88
2022/06/29 09:56:47;;;;;;;4.47;3.72;;;25.90;53.20;;;;;;5066686;28;45263;-87
2022/06/29 09:59:15;;;;;;;4.43;3.53;;;25.90;53.00;;;;;;5070199;28;45463;-88
2022/06/29 10:04:28;;;;;;;5.97;3.17;;;26.00;53.10;;;;;;5069591;28;45427;-88
2022/06/29 10:06:55;;;;;;;5.18;3.70;;;26.00;53.20;;;;;;5069497;28;45146;-88
2022/06/29 10:09:22;;;;;;;4.95;3.08;;;26.00;53.50;;;;;;5056668;28;45174;-87
2022/06/29 10:14:49;;;;;;;3.60;2.88;;;26.10;53.90;;;;;;5050428;28;45265;-88
2022/06/29 10:17:19;;;;;;;4.78;3.40;;;26.10;54.40;;;;;;5049325;28;45295;-87
2022/06/29 10:19:52;;;;;;;4.43;2.90;;;26.20;54.70;;;;;;5049157;28;45415;-88
2022/06/29 10:22:19;;;;;;;5.07;2.75;;;26.20;54.40;;;;;;5046538;28;46519;-89
2022/06/29 10:25:03;;;;;;;3.53;2.50;;;26.20;54.10;;;;;;5050515;28;45287;-88
2022/06/29 10:27:30;;;;;;;6.63;3.40;;;26.30;54.20;;;;;;5052128;28;45344;-88
2022/06/29 10:30:21;;;;;;;4.82;2.40;;;26.40;54.10;;;;;;5051030;28;45330;-88
2022/06/29 10:32:48;;;;;;;2.58;2.38;;;26.40;53.60;;;;;;5051805;28;45483;-89
2022/06/29 10:35:17;;;;;;;5.32;2.40;;;26.40;53.70;;;;;;5050953;28;45360;-89
2022/06/29 10:37:51;;;;;;;2.50;2.30;;;26.50;53.70;;;;;;5050772;28;45357;-87
2022/06/29 10:40:20;;;;;;;3.35;2.50;;;26.50;52.70;;;;;;5049748;28;45455;-88
2022/06/29 10:45:46;;;;;;;2.80;2.20;;;26.50;52.20;;;;;;4988222;28;44663;-88
2022/06/29 10:48:17;;;;;;;2.38;1.95;;;26.60;52.80;;;;;;5054050;28;45374;-88
2022/06/29 10:50:49;;;;;;;2.28;2.08;;;26.60;52.80;;;;;;5074687;28;45190;-87
2022/06/29 10:53:17;;;;;;;3.08;2.00;;;26.70;52.50;;;;;;5070547;28;45543;-89
2022/06/29 10:55:45;;;;;;;3.30;2.15;;;26.70;52.20;;;;;;5068533;28;44669;-89
2022/06/29 10:58:12;;;;;;;3.72;2.00;;;26.80;52.70;;;;;;5070112;28;45285;-88
2022/06/29 11:00:40;;;;;;;2.20;2.00;;;26.80;52.00;;;;;;5068590;28;45451;-90
2022/06/29 11:03:09;;;;;;;2.60;2.10;;;26.80;52.00;;;;;;5070694;28;45442;-89
2022/06/29 11:05:36;;;;;;;4.38;2.15;;;26.90;52.00;;;;;;5070293;28;45336;-89
2022/06/29 11:13:32;;;;;;;2.40;2.20;;;27.00;51.80;;;;;;5051699;28;45260;-89
2022/06/29 11:16:00;;;;;;;4.55;2.03;;;27.00;51.60;;;;;;5050983;28;45277;-89
2022/06/29 11:18:28;;;;;;;2.60;2.15;;;27.00;51.60;;;;;;5047968;28;45174;-90
2022/06/29 11:20:55;;;;;;;3.13;2.20;;;27.10;51.60;;;;;;5051081;28;45663;-88
2022/06/29 11:23:27;;;;;;;2.83;2.05;;;27.20;51.60;;;;;;5050560;28;45387;-89
2022/06/29 11:25:54;;;;;;;3.28;1.88;;;27.20;52.20;;;;;;5051014;28;45281;-88
2022/06/29 11:28:23;;;;;;;2.22;2.03;;;27.30;51.50;;;;;;5050607;28;45258;-89
2022/06/29 11:31:00;;;;;;;2.22;1.80;;;27.40;51.40;;;;;;5050843;28;45183;-89
2022/06/29 11:33:28;;;;;;;2.05;1.92;;;27.50;51.30;;;;;;5049721;28;45481;-90
2022/06/29 11:35:55;;;;;;;2.65;1.90;;;27.50;51.30;;;;;;5050586;28;45286;-88
2022/06/29 11:38:27;;;;;;;2.75;1.92;;;27.50;51.20;;;;;;5050626;28;45261;-89
2022/06/29 11:40:55;;;;;;;2.10;1.90;;;27.50;51.20;;;;;;5050566;28;45128;-89
2022/06/29 11:43:22;;;;;;;1.73;1.63;;;27.50;51.20;;;;;;5049869;28;45318;-90
2022/06/29 11:45:51;;;;;;;2.35;2.03;;;27.50;51.10;;;;;;5047043;28;45327;-89
2022/06/29 11:48:18;;;;;;;1.90;1.80;;;27.60;51.10;;;;;;5033624;28;45213;-89
2022/06/29 11:50:47;;;;;;;2.00;1.73;;;27.60;50.90;;;;;;5066319;28;45300;-90
2022/06/29 11:53:14;;;;;;;1.98;1.77;;;27.70;50.80;;;;;;5063406;28;45309;-89
2022/06/29 11:55:46;;;;;;;1.83;1.70;;;27.80;50.70;;;;;;5046853;28;45199;-90
2022/06/29 11:58:14;;;;;;;3.03;1.80;;;27.90;50.70;;;;;;5049166;28;45229;-90
2022/06/29 12:00:41;;;;;;;2.90;1.85;;;28.00;50.50;;;;;;5046615;28;45238;-89
2022/06/29 12:03:08;;;;;;;2.65;1.80;;;28.00;50.50;;;;;;5050317;28;47256;-90
2022/06/29 12:05:36;;;;;;;1.92;1.83;;;28.00;50.40;;;;;;5050450;28;45381;-89
2022/06/29 12:08:03;;;;;;;1.80;1.70;;;28.00;51.00;;;;;;5050480;28;45364;-89
2022/06/29 12:10:30;;;;;;;2.00;1.90;;;28.10;50.40;;;;;;5064882;28;45292;-89
2022/06/29 12:12:58;;;;;;;4.10;2.28;;;28.10;50.20;;;;;;5072979;28;46512;-90
2022/06/29 12:15:25;;;;;;;1.90;1.80;;;28.20;50.20;;;;;;5089102;28;44665;-90
2022/06/29 12:17:52;;;;;;;1.90;1.80;;;28.20;50.20;;;;;;5091561;28;44843;-90
2022/06/29 12:20:20;;;;;;;1.92;1.70;;;28.20;50.10;;;;;;5091825;28;44644;-89
2022/06/29 12:22:47;;;;;;;2.03;1.88;;;28.20;50.10;;;;;;5091596;28;45425;-90
2022/06/29 12:25:14;;;;;;;3.47;1.73;;;28.30;50.10;;;;;;5091591;28;44652;-90
2022/06/29 12:27:41;;;;;;;1.90;1.80;;;28.30;50.20;;;;;;5091572;28;44771;-89
2022/06/29 12:30:10;;;;;;;1.67;1.50;;;28.30;50.10;;;;;;5092072;28;44780;-90
2022/06/29 12:32:37;;;;;;;1.90;1.50;;;28.30;50.10;;;;;;5091707;28;45743;-91
2022/06/29 12:35:05;;;;;;;2.25;1.80;;;28.30;50.10;;;;;;5091593;28;44708;-90
2022/06/29 12:37:32;;;;;;;2.45;1.70;;;28.30;50.10;;;;;;5091734;28;44769;-90
2022/06/29 12:39:59;;;;;;;1.85;1.75;;;28.30;50.10;;;;;;5089018;28;44745;-89
2022/06/29 12:42:26;;;;;;;1.80;1.70;;;28.30;50.10;;;;;;5091388;28;45783;-90
2022/06/29 12:44:53;;;;;;;1.77;1.67;;;28.40;50.20;;;;;;5091771;28;44751;-90
2022/06/29 12:47:21;;;;;;;2.08;1.85;;;28.40;50.10;;;;;;5091439;28;44809;-89
2022/06/29 12:49:48;;;;;;;2.05;1.70;;;28.40;50.10;;;;;;5089766;28;44720;-90
2022/06/29 12:52:16;;;;;;;1.65;1.55;;;28.40;50.00;;;;;;5091049;28;45233;-89
2022/06/29 12:54:43;;;;;;;2.28;1.67;;;28.50;49.90;;;;;;5081761;28;44817;-90
2022/06/29 12:57:10;;;;;;;1.75;1.65;;;28.50;49.90;;;;;;5068001;28;45235;-89
2022/06/29 12:59:37;;;;;;;1.55;1.45;;;28.50;49.80;;;;;;5070785;28;45610;-89
2022/06/29 13:02:04;;;;;;;1.70;1.60;;;28.60;49.80;;;;;;5067240;28;45395;-90
2022/06/29 13:04:32;;;;;;;1.73;1.52;;;28.60;49.70;;;;;;5069076;28;44584;-89
2022/06/29 13:06:59;;;;;;;2.00;1.80;;;28.60;49.60;;;;;;5067512;28;45180;-89
2022/06/29 13:09:26;;;;;;;1.73;1.63;;;28.70;49.50;;;;;;5071022;28;45301;-89
2022/06/29 13:11:53;;;;;;;1.65;1.55;;;28.80;49.40;;;;;;5074805;28;45357;-88
2022/06/29 13:14:20;;;;;;;1.63;1.52;;;28.80;49.30;;;;;;5074089;28;45296;-88